sensor_id;sensor_type;location;lat;lon;timestamp;pressure;altitude;pressure_sealevel;temperature;humidity
78623;BME280;67943;54.412;9.502;2024-02-15T00:04:16;101251.84;;;11.49;100.00
78623;BME280;67943;54.412;9.502;2024-02-15T00:09:20;101252.84;;;11.42;100.00
78623;BME280;67943;54.412;9.502;2024-02-15T00:14:22;101262.16;;;11.60;100.00
78623;BME280;67943;54.412;9.502;2024-02-15T00:19:24;101255.34;;;11.49;100.00
78623;BME280;67943;54.412;9.502;2024-02-15T00:24:27;101252.66;;;11.53;100.00
78623;BME280;67943;54.412;9.502;2024-02-15T00:29:28;101244.84;;;11.48;100.00
78623;BME280;67943;54.412;9.502;2024-02-15T00:34:29;101244.56;;;11.62;100.00
78623;BME280;67943;54.412;9.502;2024-02-15T00:39:32;101247.41;;;11.53;100.00
78623;BME280;67943;54.412;9.502;2024-02-15T00:44:34;101242.16;;;11.49;100.00
78623;BME280;67943;54.412;9.502;2024-02-15T00:49:35;101251.66;;;11.58;100.00
78623;BME280;67943;54.412;9.502;2024-02-15T00:54:38;101256.03;;;11.59;100.00
78623;BME280;67943;54.412;9.502;2024-02-15T00:59:40;101248.16;;;11.58;100.00
78623;BME280;67943;54.412;9.502;2024-02-15T01:04:42;101258.59;;;11.64;100.00
78623;BME280;67943;54.412;9.502;2024-02-15T01:09:47;101255.28;;;11.54;100.00
78623;BME280;67943;54.412;9.502;2024-02-15T01:14:48;101253.59;;;11.48;100.00
78623;BME280;67943;54.412;9.502;2024-02-15T01:19:50;101252.69;;;11.51;100.00
78623;BME280;67943;54.412;9.502;2024-02-15T01:25:03;101262.31;;;11.54;100.00
78623;BME280;67943;54.412;9.502;2024-02-15T01:30:06;101258.88;;;11.48;100.00
78623;BME280;67943;54.412;9.502;2024-02-15T01:35:08;101250.94;;;11.50;100.00
78623;BME280;67943;54.412;9.502;2024-02-15T01:40:12;101258.97;;;11.44;100.00
78623;BME280;67943;54.412;9.502;2024-02-15T01:45:14;101260.63;;;11.49;100.00
78623;BME280;67943;54.412;9.502;2024-02-15T01:50:16;101261.44;;;11.53;100.00
78623;BME280;67943;54.412;9.502;2024-02-15T01:55:20;101259.63;;;11.55;100.00
78623;BME280;67943;54.412;9.502;2024-02-15T02:00:23;101259.56;;;11.58;100.00
78623;BME280;67943;54.412;9.502;2024-02-15T02:05:25;101249.94;;;11.56;100.00
78623;BME280;67943;54.412;9.502;2024-02-15T02:10:29;101254.59;;;11.43;100.00
78623;BME280;67943;54.412;9.502;2024-02-15T02:15:32;101251.06;;;11.42;100.00
78623;BME280;67943;54.412;9.502;2024-02-15T02:20:34;101259.72;;;11.50;100.00
78623;BME280;67943;54.412;9.502;2024-02-15T02:25:38;101253.56;;;11.52;100.00
78623;BME280;67943;54.412;9.502;2024-02-15T02:30:39;101252.91;;;11.39;100.00
78623;BME280;67943;54.412;9.502;2024-02-15T02:35:42;101250.25;;;11.40;100.00
78623;BME280;67943;54.412;9.502;2024-02-15T02:40:45;101252.13;;;11.32;100.00
78623;BME280;67943;54.412;9.502;2024-02-15T02:45:47;101255.50;;;11.40;100.00
78623;BME280;67943;54.412;9.502;2024-02-15T02:50:49;101252.97;;;11.34;100.00
78623;BME280;67943;54.412;9.502;2024-02-15T02:55:52;101251.22;;;11.33;100.00
78623;BME280;67943;54.412;9.502;2024-02-15T03:00:54;101246.84;;;11.32;100.00
78623;BME280;67943;54.412;9.502;2024-02-15T03:05:56;101247.91;;;11.24;100.00
78623;BME280;67943;54.412;9.502;2024-02-15T03:11:00;101247.91;;;11.24;100.00
78623;BME280;67943;54.412;9.502;2024-02-15T03:16:02;101250.69;;;11.14;100.00
78623;BME280;67943;54.412;9.502;2024-02-15T03:21:05;101260.28;;;11.19;100.00
78623;BME280;67943;54.412;9.502;2024-02-15T03:26:10;101269.91;;;11.21;100.00
78623;BME280;67943;54.412;9.502;2024-02-15T03:31:12;101264.81;;;11.09;100.00
78623;BME280;67943;54.412;9.502;2024-02-15T03:36:13;101265.66;;;11.12;100.00
78623;BME280;67943;54.412;9.502;2024-02-15T03:41:17;101262.22;;;11.07;100.00
78623;BME280;67943;54.412;9.502;2024-02-15T03:46:19;101266.66;;;11.04;100.00
78623;BME280;67943;54.412;9.502;2024-02-15T03:51:20;101265.66;;;11.11;100.00
78623;BME280;67943;54.412;9.502;2024-02-15T03:56:26;101273.56;;;11.11;100.00
78623;BME280;67943;54.412;9.502;2024-02-15T04:01:28;101273.41;;;11.22;100.00
78623;BME280;67943;54.412;9.502;2024-02-15T04:06:32;101255.00;;;11.19;100.00
78623;BME280;67943;54.412;9.502;2024-02-15T04:11:36;101267.38;;;11.15;100.00
78623;BME280;67943;54.412;9.502;2024-02-15T04:16:38;101265.47;;;11.25;100.00
78623;BME280;67943;54.412;9.502;2024-02-15T04:21:42;101274.16;;;11.28;100.00
78623;BME280;67943;54.412;9.502;2024-02-15T04:26:45;101276.91;;;11.22;100.00
78623;BME280;67943;54.412;9.502;2024-02-15T04:31:48;101276.91;;;11.22;100.00
78623;BME280;67943;54.412;9.502;2024-02-15T04:36:51;101275.16;;;11.21;100.00
78623;BME280;67943;54.412;9.502;2024-02-15T04:41:57;101285.84;;;11.12;100.00
78623;BME280;67943;54.412;9.502;2024-02-15T04:46:58;101277.97;;;11.10;100.00
78623;BME280;67943;54.412;9.502;2024-02-15T04:52:00;101289.38;;;11.11;100.00
78623;BME280;67943;54.412;9.502;2024-02-15T04:57:04;101285.84;;;11.12;100.00
78623;BME280;67943;54.412;9.502;2024-02-15T05:02:07;101286.69;;;11.14;100.00
78623;BME280;67943;54.412;9.502;2024-02-15T05:07:09;101282.31;;;11.13;100.00
78623;BME280;67943;54.412;9.502;2024-02-15T05:12:21;101279.53;;;11.24;100.00
78623;BME280;67943;54.412;9.502;2024-02-15T05:17:23;101280.53;;;11.15;100.00
78623;BME280;67943;54.412;9.502;2024-02-15T05:22:30;101280.47;;;11.18;100.00
78623;BME280;67943;54.412;9.502;2024-02-15T05:27:34;101281.13;;;11.31;100.00
78623;BME280;67943;54.412;9.502;2024-02-15T05:32:36;101280.59;;;11.10;100.00
78623;BME280;67943;54.412;9.502;2024-02-15T05:37:41;101277.28;;;10.98;100.00
78623;BME280;67943;54.412;9.502;2024-02-15T05:42:44;101271.72;;;11.18;100.00
78623;BME280;67943;54.412;9.502;2024-02-15T05:47:46;101285.78;;;11.15;100.00
78623;BME280;67943;54.412;9.502;2024-02-15T05:52:48;101291.06;;;11.15;100.00
78623;BME280;67943;54.412;9.502;2024-02-15T05:57:51;101280.47;;;11.18;100.00
78623;BME280;67943;54.412;9.502;2024-02-15T06:02:53;101278.75;;;11.17;100.00
78623;BME280;67943;54.412;9.502;2024-02-15T06:07:55;101275.94;;;11.26;100.00
78623;BME280;67943;54.412;9.502;2024-02-15T06:12:59;101279.31;;;11.34;100.00
78623;BME280;67943;54.412;9.502;2024-02-15T06:18:00;101284.59;;;11.34;100.00
78623;BME280;67943;54.412;9.502;2024-02-15T06:23:04;101287.00;;;11.48;100.00
78623;BME280;67943;54.412;9.502;2024-02-15T06:28:09;101282.66;;;11.44;100.00
78623;BME280;67943;54.412;9.502;2024-02-15T06:33:20;101288.00;;;11.41;100.00
78623;BME280;67943;54.412;9.502;2024-02-15T06:38:35;101290.69;;;11.36;100.00
78623;BME280;67943;54.412;9.502;2024-02-15T06:43:56;101296.94;;;11.31;100.00
78623;BME280;67943;54.412;9.502;2024-02-15T06:48:57;101297.66;;;11.40;100.00
78623;BME280;67943;54.412;9.502;2024-02-15T06:53:59;101301.28;;;11.33;100.00
78623;BME280;67943;54.412;9.502;2024-02-15T06:59:02;101299.34;;;11.44;100.00
78623;BME280;67943;54.412;9.502;2024-02-15T07:04:03;101293.34;;;11.36;100.00
78623;BME280;67943;54.412;9.502;2024-02-15T07:09:05;101290.56;;;11.45;100.00
78623;BME280;67943;54.412;9.502;2024-02-15T07:14:08;101306.41;;;11.42;100.00
78623;BME280;67943;54.412;9.502;2024-02-15T07:19:10;101308.84;;;11.55;100.00
78623;BME280;67943;54.412;9.502;2024-02-15T07:24:11;101313.19;;;11.56;100.00
78623;BME280;67943;54.412;9.502;2024-02-15T07:29:15;101314.88;;;11.60;100.00
78623;BME280;67943;54.412;9.502;2024-02-15T07:34:16;101317.72;;;11.49;100.00
78623;BME280;67943;54.412;9.502;2024-02-15T07:39:18;101325.66;;;11.47;100.00
78623;BME280;67943;54.412;9.502;2024-02-15T07:44:24;101326.28;;;11.62;100.00
78623;BME280;67943;54.412;9.502;2024-02-15T07:49:30;101329.75;;;11.64;100.00
78623;BME280;67943;54.412;9.502;2024-02-15T07:54:33;101330.50;;;11.72;100.00
78623;BME280;67943;54.412;9.502;2024-02-15T07:59:36;101328.69;;;11.77;100.00
78623;BME280;67943;54.412;9.502;2024-02-15T08:04:39;101325.16;;;11.75;100.00
78623;BME280;67943;54.412;9.502;2024-02-15T08:09:44;101314.59;;;11.78;100.00
78623;BME280;67943;54.412;9.502;2024-02-15T08:14:48;101317.28;;;11.73;100.00
78623;BME280;67943;54.412;9.502;2024-02-15T08:19:49;101323.13;;;11.92;100.00
78623;BME280;67943;54.412;9.502;2024-02-15T08:24:52;101323.22;;;11.86;100.00
78623;BME280;67943;54.412;9.502;2024-02-15T08:29:55;101322.50;;;11.79;100.00
78623;BME280;67943;54.412;9.502;2024-02-15T08:34:56;101313.63;;;11.83;100.00
78623;BME280;67943;54.412;9.502;2024-02-15T08:39:59;101315.28;;;11.88;100.00
78623;BME280;67943;54.412;9.502;2024-02-15T08:45:03;101312.56;;;11.92;100.00
78623;BME280;67943;54.412;9.502;2024-02-15T08:50:07;101316.88;;;11.96;100.00
78623;BME280;67943;54.412;9.502;2024-02-15T08:55:13;101311.44;;;12.05;100.00
78623;BME280;67943;54.412;9.502;2024-02-15T09:00:16;101313.25;;;12.03;100.00
78623;BME280;67943;54.412;9.502;2024-02-15T09:05:18;101333.44;;;12.04;100.00
78623;BME280;67943;54.412;9.502;2024-02-15T09:10:22;101328.22;;;12.01;100.00
78623;BME280;67943;54.412;9.502;2024-02-15T09:15:25;101330.13;;;11.93;100.00
78623;BME280;67943;54.412;9.502;2024-02-15T09:20:26;101325.81;;;11.89;100.00
78623;BME280;67943;54.412;9.502;2024-02-15T09:25:28;101331.03;;;11.92;100.00
78623;BME280;67943;54.412;9.502;2024-02-15T09:30:33;101328.22;;;12.01;100.00
78623;BME280;67943;54.412;9.502;2024-02-15T09:35:35;101323.75;;;12.06;100.00
78623;BME280;67943;54.412;9.502;2024-02-15T09:40:38;101315.81;;;12.08;100.00
78623;BME280;67943;54.412;9.502;2024-02-15T09:45:42;101326.00;;;12.25;100.00
78623;BME280;67943;54.412;9.502;2024-02-15T09:50:45;101322.44;;;12.27;100.00
78623;BME280;67943;54.412;9.502;2024-02-15T09:55:47;101325.00;;;12.32;100.00
78623;BME280;67943;54.412;9.502;2024-02-15T10:00:50;101322.94;;;12.44;100.00
78623;BME280;67943;54.412;9.502;2024-02-15T10:05:51;101310.50;;;12.51;100.00
78623;BME280;67943;54.412;9.502;2024-02-15T10:11:05;101315.00;;;12.46;100.00
78623;BME280;67943;54.412;9.502;2024-02-15T10:16:16;101317.53;;;12.50;100.00
78623;BME280;67943;54.412;9.502;2024-02-15T10:21:25;101316.81;;;12.44;100.00
78623;BME280;67943;54.412;9.502;2024-02-15T10:26:28;101325.56;;;12.46;100.00
78623;BME280;67943;54.412;9.502;2024-02-15T10:31:31;101314.63;;;12.64;100.00
78623;BME280;67943;54.412;9.502;2024-02-15T10:36:33;101316.19;;;12.71;100.00
78623;BME280;67943;54.412;9.502;2024-02-15T10:41:35;101307.13;;;12.84;100.00
78623;BME280;67943;54.412;9.502;2024-02-15T10:46:38;101308.84;;;12.85;100.00
78623;BME280;67943;54.412;9.502;2024-02-15T10:51:49;101302.84;;;12.79;100.00
78623;BME280;67943;54.412;9.502;2024-02-15T10:56:53;101307.38;;;12.72;100.00
78623;BME280;67943;54.412;9.502;2024-02-15T11:02:00;101292.00;;;12.91;100.00
78623;BME280;67943;54.412;9.502;2024-02-15T11:07:04;101296.41;;;12.91;100.00
78623;BME280;67943;54.412;9.502;2024-02-15T11:12:07;101282.44;;;12.85;100.00
78623;BME280;67943;54.412;9.502;2024-02-15T11:17:10;101287.34;;;13.01;100.00
78623;BME280;67943;54.412;9.502;2024-02-15T11:22:14;101278.34;;;13.09;100.00
78623;BME280;67943;54.412;9.502;2024-02-15T11:27:26;101279.56;;;12.96;100.00
78623;BME280;67943;54.412;9.502;2024-02-15T11:32:40;101276.34;;;12.82;100.00
78623;BME280;67943;54.412;9.502;2024-02-15T11:37:57;101264.66;;;12.94;100.00
78623;BME280;67943;54.412;9.502;2024-02-15T11:43:04;101269.94;;;12.94;100.00
78623;BME280;67943;54.412;9.502;2024-02-15T11:48:09;101264.72;;;12.91;100.00
78623;BME280;67943;54.412;9.502;2024-02-15T11:53:11;101254.34;;;13.20;100.00
78623;BME280;67943;54.412;9.502;2024-02-15T11:58:13;101253.50;;;13.18;100.00
78623;BME280;67943;54.412;9.502;2024-02-15T12:03:30;101243.94;;;13.12;100.00
78623;BME280;67943;54.412;9.502;2024-02-15T12:08:52;101252.59;;;13.19;100.00
78623;BME280;67943;54.412;9.502;2024-02-15T12:14:12;101242.88;;;13.21;100.00
78623;BME280;67943;54.412;9.502;2024-02-15T12:19:32;101235.91;;;13.17;100.00
78623;BME280;67943;54.412;9.502;2024-02-15T12:24:35;101251.63;;;13.23;100.00
78623;BME280;67943;54.412;9.502;2024-02-15T12:29:36;101244.53;;;13.25;100.00
78623;BME280;67943;54.412;9.502;2024-02-15T12:34:39;101246.22;;;13.28;100.00
78623;BME280;67943;54.412;9.502;2024-02-15T12:39:41;101229.78;;;13.16;100.00
78623;BME280;67943;54.412;9.502;2024-02-15T12:44:46;101241.28;;;13.12;100.00
78623;BME280;67943;54.412;9.502;2024-02-15T12:49:49;101243.19;;;13.06;100.00
78623;BME280;67943;54.412;9.502;2024-02-15T12:55:06;101230.00;;;13.06;100.00
78623;BME280;67943;54.412;9.502;2024-02-15T13:00:09;101234.34;;;13.08;100.00
78623;BME280;67943;54.412;9.502;2024-02-15T13:05:20;101231.47;;;13.19;100.00
78623;BME280;67943;54.412;9.502;2024-02-15T13:10:22;101227.88;;;13.22;100.00
78623;BME280;67943;54.412;9.502;2024-02-15T13:15:24;101229.31;;;13.33;100.00
78623;BME280;67943;54.412;9.502;2024-02-15T13:20:34;101221.44;;;13.32;100.00
78623;BME280;67943;54.412;9.502;2024-02-15T13:25:38;101222.16;;;13.38;100.00
78623;BME280;67943;54.412;9.502;2024-02-15T13:30:39;101219.88;;;13.25;100.00
78623;BME280;67943;54.412;9.502;2024-02-15T13:35:44;101210.06;;;13.28;100.00
78623;BME280;67943;54.412;9.502;2024-02-15T13:40:45;101205.63;;;13.30;100.00
78623;BME280;67943;54.412;9.502;2024-02-15T13:45:49;101212.56;;;13.34;100.00
78623;BME280;67943;54.412;9.502;2024-02-15T13:50:53;101207.44;;;13.28;100.00
78623;BME280;67943;54.412;9.502;2024-02-15T13:55:54;101199.50;;;13.28;100.00
78623;BME280;67943;54.412;9.502;2024-02-15T14:00:56;101200.44;;;13.27;100.00
78623;BME280;67943;54.412;9.502;2024-02-15T14:06:01;101208.19;;;13.33;100.00
78623;BME280;67943;54.412;9.502;2024-02-15T14:11:03;101193.22;;;13.32;100.00
78623;BME280;67943;54.412;9.502;2024-02-15T14:16:05;101189.94;;;13.24;100.00
78623;BME280;67943;54.412;9.502;2024-02-15T14:21:09;101187.00;;;13.35;100.00
78623;BME280;67943;54.412;9.502;2024-02-15T14:26:11;101190.59;;;13.32;100.00
78623;BME280;67943;54.412;9.502;2024-02-15T14:31:17;101196.97;;;13.25;100.00
78623;BME280;67943;54.412;9.502;2024-02-15T14:36:38;101189.88;;;13.27;100.00
78623;BME280;67943;54.412;9.502;2024-02-15T14:41:39;101181.16;;;13.24;100.00
78623;BME280;67943;54.412;9.502;2024-02-15T14:46:41;101187.47;;;13.18;100.00
78623;BME280;67943;54.412;9.502;2024-02-15T14:51:44;101182.97;;;13.22;100.00
78623;BME280;67943;54.412;9.502;2024-02-15T14:56:46;101174.16;;;13.21;100.00
78623;BME280;67943;54.412;9.502;2024-02-15T15:01:48;101171.31;;;13.60;100.00
78623;BME280;67943;54.412;9.502;2024-02-15T15:06:52;101165.22;;;13.58;100.00
78623;BME280;67943;54.412;9.502;2024-02-15T15:12:11;101172.97;;;13.64;100.00
78623;BME280;67943;54.412;9.502;2024-02-15T15:17:30;101178.09;;;13.70;100.00
78623;BME280;67943;54.412;9.502;2024-02-15T15:22:33;101186.44;;;13.56;100.00
78623;BME280;67943;54.412;9.502;2024-02-15T15:27:35;101175.94;;;13.53;100.00
78623;BME280;67943;54.412;9.502;2024-02-15T15:32:37;101176.03;;;13.50;100.00
78623;BME280;67943;54.412;9.502;2024-02-15T15:37:41;101180.09;;;13.62;100.00
78623;BME280;67943;54.412;9.502;2024-02-15T15:42:43;101184.69;;;13.55;100.00
78623;BME280;67943;54.412;9.502;2024-02-15T15:47:44;101180.94;;;13.62;100.00
78623;BME280;67943;54.412;9.502;2024-02-15T15:52:47;101190.94;;;13.52;100.00
78623;BME280;67943;54.412;9.502;2024-02-15T15:57:49;101193.69;;;13.14;100.00
78623;BME280;67943;54.412;9.502;2024-02-15T16:02:51;101178.88;;;13.42;100.00
78623;BME280;67943;54.412;9.502;2024-02-15T16:07:55;101173.66;;;13.39;100.00
78623;BME280;67943;54.412;9.502;2024-02-15T16:12:56;101184.38;;;13.33;100.00
78623;BME280;67943;54.412;9.502;2024-02-15T16:18:00;101180.97;;;13.30;100.00
78623;BME280;67943;54.412;9.502;2024-02-15T16:23:03;101191.34;;;13.37;100.00
78623;BME280;67943;54.412;9.502;2024-02-15T16:28:05;101186.44;;;13.24;100.00
78623;BME280;67943;54.412;9.502;2024-02-15T16:33:07;101186.16;;;13.33;100.00
78623;BME280;67943;54.412;9.502;2024-02-15T16:38:10;101177.38;;;13.32;100.00
78623;BME280;67943;54.412;9.502;2024-02-15T16:43:11;101174.97;;;13.25;100.00
78623;BME280;67943;54.412;9.502;2024-02-15T16:48:13;101172.50;;;13.17;100.00
78623;BME280;67943;54.412;9.502;2024-02-15T16:53:16;101176.84;;;13.20;100.00
78623;BME280;67943;54.412;9.502;2024-02-15T16:58:18;101172.53;;;13.15;100.00
78623;BME280;67943;54.412;9.502;2024-02-15T17:03:21;101173.34;;;13.19;100.00
78623;BME280;67943;54.412;9.502;2024-02-15T17:08:24;101175.97;;;13.19;100.00
78623;BME280;67943;54.412;9.502;2024-02-15T17:13:25;101172.63;;;13.11;100.00
78623;BME280;67943;54.412;9.502;2024-02-15T17:18:27;101176.94;;;13.15;100.00
78623;BME280;67943;54.412;9.502;2024-02-15T17:23:30;101183.13;;;13.15;100.00
78623;BME280;67943;54.412;9.502;2024-02-15T17:28:31;101182.16;;;13.18;100.00
78623;BME280;67943;54.412;9.502;2024-02-15T17:33:33;101186.63;;;13.14;100.00
78623;BME280;67943;54.412;9.502;2024-02-15T17:38:36;101181.53;;;13.07;100.00
78623;BME280;67943;54.412;9.502;2024-02-15T17:43:38;101176.38;;;13.02;100.00
78623;BME280;67943;54.412;9.502;2024-02-15T17:48:40;101176.25;;;13.07;100.00
78623;BME280;67943;54.412;9.502;2024-02-15T17:53:50;101168.25;;;13.10;100.00
78623;BME280;67943;54.412;9.502;2024-02-15T17:58:53;101178.81;;;13.10;100.00
78623;BME280;67943;54.412;9.502;2024-02-15T18:03:55;101180.63;;;13.08;100.00
78623;BME280;67943;54.412;9.502;2024-02-15T18:08:59;101190.28;;;13.09;100.00
78623;BME280;67943;54.412;9.502;2024-02-15T18:14:00;101186.00;;;13.05;100.00
78623;BME280;67943;54.412;9.502;2024-02-15T18:19:02;101197.53;;;13.01;100.00
78623;BME280;67943;54.412;9.502;2024-02-15T18:24:06;101181.94;;;12.92;100.00
78623;BME280;67943;54.412;9.502;2024-02-15T18:29:08;101186.06;;;13.02;100.00
78623;BME280;67943;54.412;9.502;2024-02-15T18:34:12;101182.44;;;13.06;100.00
78623;BME280;67943;54.412;9.502;2024-02-15T18:39:15;101178.13;;;13.02;100.00
78623;BME280;67943;54.412;9.502;2024-02-15T18:44:17;101169.50;;;12.97;100.00
78623;BME280;67943;54.412;9.502;2024-02-15T18:49:19;101169.16;;;13.09;100.00
78623;BME280;67943;54.412;9.502;2024-02-15T18:54:28;101164.03;;;13.03;100.00
78623;BME280;67943;54.412;9.502;2024-02-15T18:59:30;101165.97;;;12.96;100.00
78623;BME280;67943;54.412;9.502;2024-02-15T19:04:32;101170.19;;;13.03;100.00
78623;BME280;67943;54.412;9.502;2024-02-15T19:09:34;101164.22;;;12.97;100.00
78623;BME280;67943;54.412;9.502;2024-02-15T19:14:36;101160.47;;;13.04;100.00
78623;BME280;67943;54.412;9.502;2024-02-15T19:19:39;101154.59;;;12.94;100.00
78623;BME280;67943;54.412;9.502;2024-02-15T19:24:42;101150.75;;;13.06;100.00
78623;BME280;67943;54.412;9.502;2024-02-15T19:29:44;101156.94;;;13.05;100.00
78623;BME280;67943;54.412;9.502;2024-02-15T19:34:45;101157.25;;;12.93;100.00
78623;BME280;67943;54.412;9.502;2024-02-15T19:39:48;101153.59;;;12.98;100.00
78623;BME280;67943;54.412;9.502;2024-02-15T19:44:52;101155.53;;;12.92;100.00
78623;BME280;67943;54.412;9.502;2024-02-15T19:49:54;101167.56;;;13.02;100.00
78623;BME280;67943;54.412;9.502;2024-02-15T19:55:00;101160.69;;;12.96;100.00
78623;BME280;67943;54.412;9.502;2024-02-15T20:00:02;101163.16;;;13.02;100.00
78623;BME280;67943;54.412;9.502;2024-02-15T20:05:05;101152.69;;;12.99;100.00
78623;BME280;67943;54.412;9.502;2024-02-15T20:10:09;101157.19;;;12.96;100.00
78623;BME280;67943;54.412;9.502;2024-02-15T20:15:10;101154.69;;;12.90;100.00
78623;BME280;67943;54.412;9.502;2024-02-15T20:20:12;101150.41;;;12.85;100.00
78623;BME280;67943;54.412;9.502;2024-02-15T20:25:17;101152.75;;;12.98;100.00
78623;BME280;67943;54.412;9.502;2024-02-15T20:30:19;101147.50;;;12.96;100.00
78623;BME280;67943;54.412;9.502;2024-02-15T20:35:21;101150.31;;;12.89;100.00
78623;BME280;67943;54.412;9.502;2024-02-15T20:40:24;101144.22;;;12.87;100.00
78623;BME280;67943;54.412;9.502;2024-02-15T20:45:26;101145.84;;;12.92;100.00
78623;BME280;67943;54.412;9.502;2024-02-15T20:50:27;101141.50;;;12.90;100.00
78623;BME280;67943;54.412;9.502;2024-02-15T20:55:30;101144.97;;;12.92;100.00
78623;BME280;67943;54.412;9.502;2024-02-15T21:00:32;101156.31;;;12.95;100.00
78623;BME280;67943;54.412;9.502;2024-02-15T21:05:33;101152.81;;;12.95;100.00
78623;BME280;67943;54.412;9.502;2024-02-15T21:10:36;101156.19;;;13.00;100.00
78623;BME280;67943;54.412;9.502;2024-02-15T21:15:38;101136.84;;;12.99;100.00
78623;BME280;67943;54.412;9.502;2024-02-15T21:20:39;101148.38;;;12.97;100.00
78623;BME280;67943;54.412;9.502;2024-02-15T21:25:42;101132.47;;;12.98;100.00
78623;BME280;67943;54.412;9.502;2024-02-15T21:30:44;101127.94;;;13.02;100.00
78623;BME280;67943;54.412;9.502;2024-02-15T21:35:45;101131.59;;;12.98;100.00
78623;BME280;67943;54.412;9.502;2024-02-15T21:40:48;101121.75;;;13.03;100.00
78623;BME280;67943;54.412;9.502;2024-02-15T21:45:49;101119.88;;;13.08;100.00
78623;BME280;67943;54.412;9.502;2024-02-15T21:50:54;101102.56;;;12.98;100.00
78623;BME280;67943;54.412;9.502;2024-02-15T21:55:57;101095.19;;;13.09;100.00
78623;BME280;67943;54.412;9.502;2024-02-15T22:00:59;101083.53;;;13.17;100.00
78623;BME280;67943;54.412;9.502;2024-02-15T22:06:01;101090.84;;;13.06;100.00
78623;BME280;67943;54.412;9.502;2024-02-15T22:11:04;101088.88;;;13.16;100.00
78623;BME280;67943;54.412;9.502;2024-02-15T22:16:06;101093.38;;;13.11;100.00
78623;BME280;67943;54.412;9.502;2024-02-15T22:21:07;101082.72;;;13.14;100.00
78623;BME280;67943;54.412;9.502;2024-02-15T22:26:14;101073.47;;;13.30;100.00
78623;BME280;67943;54.412;9.502;2024-02-15T22:31:17;101082.59;;;13.20;100.00
78623;BME280;67943;54.412;9.502;2024-02-15T22:36:20;101080.84;;;13.19;100.00
78623;BME280;67943;54.412;9.502;2024-02-15T22:41:23;101077.22;;;13.23;100.00
78623;BME280;67943;54.412;9.502;2024-02-15T22:46:25;101080.00;;;13.18;100.00
78623;BME280;67943;54.412;9.502;2024-02-15T22:51:26;101074.66;;;13.20;100.00
78623;BME280;67943;54.412;9.502;2024-02-15T22:56:29;101067.59;;;13.21;100.00
78623;BME280;67943;54.412;9.502;2024-02-15T23:01:31;101052.34;;;13.30;100.00
78623;BME280;67943;54.412;9.502;2024-02-15T23:06:32;101042.06;;;13.21;100.00
78623;BME280;67943;54.412;9.502;2024-02-15T23:11:37;101044.56;;;13.26;100.00
78623;BME280;67943;54.412;9.502;2024-02-15T23:16:39;101036.19;;;13.41;100.00
78623;BME280;67943;54.412;9.502;2024-02-15T23:21:40;101033.25;;;13.21;100.00
78623;BME280;67943;54.412;9.502;2024-02-15T23:26:44;101037.72;;;13.18;100.00
78623;BME280;67943;54.412;9.502;2024-02-15T23:31:46;101039.75;;;13.07;100.00
78623;BME280;67943;54.412;9.502;2024-02-15T23:36:48;101041.56;;;13.05;100.00
78623;BME280;67943;54.412;9.502;2024-02-15T23:42:08;101038.88;;;13.07;100.00
78623;BME280;67943;54.412;9.502;2024-02-15T23:47:10;101038.50;;;12.90;100.00
78623;BME280;67943;54.412;9.502;2024-02-15T23:52:11;101031.47;;;12.89;100.00
78623;BME280;67943;54.412;9.502;2024-02-15T23:57:14;101030.72;;;12.83;100.00
